Time;durP1;ratioP1;P1;durP2;ratioP2;P2;SDS_P1;SDS_P2;PMS_P1;PMS_P2;Temp;Humidity;BMP_temperature;BMP_pressure;BME280_temperature;BME280_humidity;BME280_pressure;Samples;Min_cycle;Max_cycle;Signal;HPM_P1;HPM_P2
2023/08/10 00:02:41;;;;;;;2.47;2.10;;;16.40;99.90;;;;;;6303505;28;20049;-82
2023/08/10 00:05:42;;;;;;;2.47;2.28;;;16.30;99.90;;;;;;6300034;28;20044;-81
2023/08/10 00:08:44;;;;;;;3.53;2.60;;;16.30;99.90;;;;;;6303445;28;20530;-80
2023/08/10 00:11:46;;;;;;;4.32;2.83;;;16.20;99.90;;;;;;6326787;28;20062;-81
2023/08/10 00:14:49;;;;;;;4.03;3.28;;;16.10;99.90;;;;;;6328349;28;20121;-82
2023/08/10 00:17:51;;;;;;;3.28;2.97;;;16.00;99.90;;;;;;6327212;28;20071;-82
2023/08/10 00:20:52;;;;;;;8.38;2.83;;;16.00;99.90;;;;;;6328592;28;20066;-81
2023/08/10 00:23:56;;;;;;;4.03;2.95;;;15.90;99.90;;;;;;6327924;28;20525;-81
2023/08/10 00:26:57;;;;;;;2.40;2.20;;;15.90;99.90;;;;;;6327921;28;20048;-82
2023/08/10 00:30:00;;;;;;;3.72;2.40;;;15.90;99.90;;;;;;6329030;28;20407;-80
2023/08/10 00:33:02;;;;;;;3.90;2.38;;;15.80;99.90;;;;;;6328338;28;20495;-80
2023/08/10 00:36:07;;;;;;;3.58;3.30;;;15.80;99.90;;;;;;6327821;28;20063;-82
2023/08/10 00:39:09;;;;;;;4.97;3.13;;;15.70;99.90;;;;;;6327892;28;20125;-81
2023/08/10 00:42:12;;;;;;;3.85;3.42;;;15.60;99.90;;;;;;6327974;28;20051;-80
2023/08/10 00:45:15;;;;;;;4.25;2.92;;;15.50;99.90;;;;;;6326451;28;20073;-82
2023/08/10 00:48:17;;;;;;;4.28;2.78;;;15.50;99.90;;;;;;6324884;28;20036;-82
2023/08/10 00:51:19;;;;;;;5.32;2.92;;;15.50;99.90;;;;;;6327926;28;20044;-80
2023/08/10 00:54:21;;;;;;;3.80;3.13;;;15.40;99.90;;;;;;6327955;28;20055;-81
2023/08/10 00:57:23;;;;;;;3.13;2.83;;;15.40;99.90;;;;;;6326679;28;20055;-82
2023/08/10 01:00:26;;;;;;;4.32;3.25;;;15.20;99.90;;;;;;6327427;28;20056;-81
2023/08/10 01:03:28;;;;;;;4.50;2.85;;;15.20;99.90;;;;;;6326704;28;20047;-81
2023/08/10 01:06:38;;;;;;;5.28;4.00;;;15.10;99.90;;;;;;6326526;28;20051;-81
2023/08/10 01:09:48;;;;;;;5.25;3.35;;;15.10;99.90;;;;;;6329006;28;20363;-81
2023/08/10 01:12:54;;;;;;;4.40;3.45;;;15.00;99.90;;;;;;6329938;28;20052;-81
2023/08/10 01:16:02;;;;;;;4.75;3.65;;;14.90;99.90;;;;;;6330632;28;20044;-82
2023/08/10 01:19:07;;;;;;;6.50;4.10;;;14.90;99.90;;;;;;6330072;28;20421;-81
2023/08/10 01:22:18;;;;;;;6.18;3.22;;;14.80;99.90;;;;;;6326558;28;20507;-80
2023/08/10 01:25:23;;;;;;;7.50;3.63;;;14.80;99.90;;;;;;6326987;28;20364;-81
2023/08/10 01:28:26;;;;;;;4.22;3.83;;;14.70;99.90;;;;;;6325937;28;20049;-80
2023/08/10 01:31:28;;;;;;;9.02;4.28;;;14.60;99.90;;;;;;6327197;28;20414;-80
2023/08/10 01:34:30;;;;;;;5.60;3.33;;;14.60;99.90;;;;;;6326782;28;20047;-80
2023/08/10 01:37:31;;;;;;;7.25;4.15;;;14.50;99.90;;;;;;6326929;28;20055;-80
2023/08/10 01:40:35;;;;;;;4.30;3.90;;;14.50;99.90;;;;;;6327387;28;20071;-80
2023/08/10 01:43:36;;;;;;;4.65;4.25;;;14.40;99.90;;;;;;6326761;28;20040;-81
2023/08/10 01:46:40;;;;;;;5.68;3.92;;;14.40;99.90;;;;;;6326222;28;20059;-81
2023/08/10 01:49:44;;;;;;;5.65;4.28;;;14.30;99.90;;;;;;6323301;28;20118;-80
2023/08/10 01:52:51;;;;;;;4.45;4.00;;;14.30;99.90;;;;;;6316896;28;20419;-81
2023/08/10 01:55:54;;;;;;;5.93;4.60;;;14.20;99.90;;;;;;6326188;28;20047;-80
2023/08/10 01:58:55;;;;;;;5.55;4.38;;;14.20;99.90;;;;;;6324473;28;20044;-80
2023/08/10 02:01:57;;;;;;;5.63;3.35;;;14.20;99.90;;;;;;6322281;28;20359;-81
2023/08/10 02:04:59;;;;;;;4.57;3.90;;;14.20;99.90;;;;;;6325752;28;20048;-81
2023/08/10 02:08:01;;;;;;;5.30;4.80;;;14.10;99.90;;;;;;6326546;28;20055;-81
2023/08/10 02:11:04;;;;;;;5.80;5.30;;;14.00;99.90;;;;;;6326586;28;20048;-82
2023/08/10 02:14:06;;;;;;;6.78;4.25;;;13.90;99.90;;;;;;6327352;28;20454;-82
2023/08/10 02:17:07;;;;;;;4.88;4.45;;;13.90;99.90;;;;;;6326585;28;20047;-81
2023/08/10 02:20:12;;;;;;;5.72;5.15;;;13.90;99.90;;;;;;6325326;28;20048;-80
2023/08/10 02:23:14;;;;;;;6.90;4.53;;;13.80;99.90;;;;;;6325293;28;20143;-82
2023/08/10 02:26:17;;;;;;;4.20;3.60;;;13.80;99.90;;;;;;6326374;28;20052;-81
2023/08/10 02:29:19;;;;;;;8.07;5.40;;;13.80;99.90;;;;;;6325111;28;20044;-82
2023/08/10 02:32:21;;;;;;;6.00;4.70;;;13.70;99.90;;;;;;6325365;28;20486;-82
2023/08/10 02:35:22;;;;;;;7.18;5.07;;;13.70;99.90;;;;;;6325846;28;20051;-80
2023/08/10 02:38:24;;;;;;;5.63;4.70;;;13.70;99.90;;;;;;6326932;28;20058;-80
2023/08/10 02:41:27;;;;;;;4.15;3.75;;;13.70;99.90;;;;;;6325751;28;20055;-81
2023/08/10 02:44:29;;;;;;;7.00;5.07;;;13.60;99.90;;;;;;6330063;28;20040;-81
2023/08/10 02:47:31;;;;;;;7.40;4.35;;;13.60;99.90;;;;;;6327782;28;20056;-79
2023/08/10 02:50:32;;;;;;;8.40;6.32;;;13.60;99.90;;;;;;6326776;28;20112;-82
2023/08/10 02:53:34;;;;;;;11.55;4.85;;;13.50;99.90;;;;;;6325242;28;20050;-80
2023/08/10 02:56:37;;;;;;;5.75;5.25;;;13.60;99.90;;;;;;6323786;28;20410;-81
2023/08/10 02:59:39;;;;;;;5.15;4.40;;;13.60;99.90;;;;;;6323227;28;20161;-80
2023/08/10 03:02:41;;;;;;;11.15;5.22;;;13.60;99.90;;;;;;6324186;28;20515;-81
2023/08/10 03:05:43;;;;;;;5.95;4.53;;;13.50;99.90;;;;;;6323338;28;20048;-80
2023/08/10 03:08:44;;;;;;;5.50;4.90;;;13.50;99.90;;;;;;6322831;28;20280;-82
2023/08/10 03:11:47;;;;;;;5.47;4.97;;;13.50;99.90;;;;;;6322720;28;20383;-80
2023/08/10 03:14:49;;;;;;;5.82;4.13;;;13.50;99.90;;;;;;6324426;28;20052;-81
2023/08/10 03:17:51;;;;;;;5.22;4.72;;;13.50;99.90;;;;;;6323348;28;20052;-82
2023/08/10 03:20:52;;;;;;;6.70;4.55;;;13.40;99.90;;;;;;6323391;28;20055;-81
2023/08/10 03:23:54;;;;;;;11.13;5.47;;;13.40;99.90;;;;;;6323207;28;20055;-80
2023/08/10 03:26:57;;;;;;;6.90;4.38;;;13.40;99.90;;;;;;6323169;28;20513;-82
2023/08/10 03:29:59;;;;;;;10.38;4.68;;;13.40;99.90;;;;;;6323722;28;20123;-80
2023/08/10 03:33:01;;;;;;;5.82;4.20;;;13.30;99.90;;;;;;6324041;28;20376;-81
2023/08/10 03:36:02;;;;;;;4.50;4.10;;;13.30;99.90;;;;;;6323601;28;20696;-80
2023/08/10 03:39:05;;;;;;;6.05;4.15;;;13.30;99.90;;;;;;6323434;28;20067;-81
2023/08/10 03:42:08;;;;;;;5.07;4.53;;;13.20;99.90;;;;;;6323703;28;20052;-81
2023/08/10 03:45:10;;;;;;;9.23;5.05;;;13.20;99.90;;;;;;6323204;28;20696;-80
2023/08/10 03:48:12;;;;;;;8.90;4.60;;;13.20;99.90;;;;;;6323692;28;20051;-80
2023/08/10 03:51:14;;;;;;;5.50;4.85;;;13.20;99.90;;;;;;6328195;28;20040;-81
2023/08/10 03:54:16;;;;;;;6.25;4.85;;;13.10;99.90;;;;;;6326796;28;20056;-82
2023/08/10 03:57:19;;;;;;;9.63;4.88;;;13.10;99.90;;;;;;6324608;28;20507;-80
2023/08/10 04:00:21;;;;;;;11.48;4.13;;;13.00;99.90;;;;;;6315542;28;20419;-80
2023/08/10 04:03:23;;;;;;;10.63;4.85;;;12.90;99.90;;;;;;6300175;28;20040;-79
2023/08/10 04:06:25;;;;;;;6.90;6.13;;;13.00;99.90;;;;;;6300682;28;20053;-80
2023/08/10 04:09:26;;;;;;;7.22;4.18;;;13.00;99.90;;;;;;6301597;28;20047;-81
2023/08/10 04:12:29;;;;;;;8.20;4.18;;;13.00;99.90;;;;;;6300430;28;20041;-81
2023/08/10 04:15:32;;;;;;;7.97;4.68;;;13.00;99.90;;;;;;6299605;28;20052;-81
2023/08/10 04:18:34;;;;;;;5.18;4.70;;;12.90;99.90;;;;;;6302358;28;20051;-80
2023/08/10 04:21:35;;;;;;;7.45;5.10;;;12.90;99.90;;;;;;6307190;28;20085;-80
2023/08/10 04:24:37;;;;;;;5.90;4.47;;;12.90;99.90;;;;;;6305775;28;20091;-81
2023/08/10 04:27:40;;;;;;;12.55;4.38;;;12.90;99.90;;;;;;6307880;28;20044;-80
2023/08/10 04:30:42;;;;;;;10.52;5.38;;;12.90;99.90;;;;;;6307150;28;20041;-80
2023/08/10 04:33:43;;;;;;;10.35;5.78;;;12.90;99.90;;;;;;6307201;28;20045;-81
2023/08/10 04:36:45;;;;;;;6.28;5.55;;;12.90;99.90;;;;;;6305466;28;20158;-80
2023/08/10 04:39:47;;;;;;;7.00;5.50;;;12.90;99.90;;;;;;6304093;28;20044;-80
2023/08/10 04:42:50;;;;;;;5.55;5.05;;;12.90;99.90;;;;;;6305536;28;20048;-80
2023/08/10 04:45:52;;;;;;;7.97;5.07;;;12.90;99.90;;;;;;6307032;28;20049;-81
2023/08/10 04:48:54;;;;;;;5.88;5.22;;;13.00;99.90;;;;;;6305062;28;20055;-81
2023/08/10 04:51:56;;;;;;;6.03;5.25;;;13.00;99.90;;;;;;6306532;28;20063;-80
2023/08/10 04:54:58;;;;;;;4.60;4.20;;;13.10;99.90;;;;;;6307040;28;20056;-80
2023/08/10 04:58:00;;;;;;;6.80;4.97;;;13.10;99.90;;;;;;6307837;28;20057;-81
2023/08/10 05:01:03;;;;;;;10.32;5.10;;;13.20;99.90;;;;;;6308053;28;20053;-81
2023/08/10 05:04:05;;;;;;;6.75;5.72;;;13.20;99.90;;;;;;6308982;28;20051;-81
2023/08/10 05:07:07;;;;;;;6.88;5.35;;;13.40;99.90;;;;;;6305528;28;20056;-82
2023/08/10 05:10:09;;;;;;;7.13;5.22;;;13.50;99.90;;;;;;6305775;28;20054;-80
2023/08/10 05:13:12;;;;;;;6.55;4.78;;;13.70;99.90;;;;;;6304170;28;20055;-80
2023/08/10 05:16:14;;;;;;;4.97;4.47;;;13.80;99.90;;;;;;6303632;28;20049;-79
2023/08/10 05:19:16;;;;;;;5.88;4.70;;;14.00;99.90;;;;;;6303668;28;20040;-81
2023/08/10 05:22:18;;;;;;;6.32;5.72;;;14.10;99.90;;;;;;6302845;28;20074;-81
2023/08/10 05:25:20;;;;;;;9.77;4.85;;;14.30;99.90;;;;;;6301669;28;20107;-81
2023/08/10 05:28:23;;;;;;;5.22;4.72;;;14.40;99.90;;;;;;6302839;28;20580;-81
2023/08/10 05:31:25;;;;;;;5.25;3.83;;;14.50;99.90;;;;;;6302379;28;20095;-82
2023/08/10 05:34:27;;;;;;;8.50;3.78;;;14.70;99.90;;;;;;6303515;28;20108;-81
2023/08/10 05:37:29;;;;;;;5.03;3.72;;;14.90;99.90;;;;;;6302717;28;20044;-81
2023/08/10 05:40:30;;;;;;;7.00;3.38;;;15.00;99.90;;;;;;6303340;28;20036;-80
2023/08/10 05:43:33;;;;;;;4.85;3.92;;;15.20;99.90;;;;;;6302727;28;20060;-82
2023/08/10 05:46:35;;;;;;;3.90;3.50;;;15.30;99.90;;;;;;6304340;28;20044;-82
2023/08/10 05:49:37;;;;;;;5.05;3.72;;;15.50;99.90;;;;;;6301304;28;20087;-82
2023/08/10 05:52:38;;;;;;;7.40;4.25;;;15.60;99.90;;;;;;6303042;28;20495;-81
2023/08/10 05:55:41;;;;;;;5.45;4.90;;;15.70;99.90;;;;;;6315616;28;20389;-82
2023/08/10 05:58:44;;;;;;;7.72;3.45;;;15.80;99.90;;;;;;6319637;28;20044;-82
2023/08/10 06:01:47;;;;;;;11.55;3.97;;;16.00;99.90;;;;;;6303706;28;20052;-80
2023/08/10 06:04:49;;;;;;;6.32;4.38;;;16.40;99.90;;;;;;6303348;28;20076;-82
2023/08/10 06:07:51;;;;;;;5.38;3.83;;;16.80;99.90;;;;;;6313938;28;20117;-81
2023/08/10 06:10:53;;;;;;;3.63;3.33;;;17.40;99.90;;;;;;6319335;28;20094;-81
2023/08/10 06:13:56;;;;;;;5.20;3.30;;;18.00;99.90;;;;;;6326936;28;20048;-81
2023/08/10 06:16:58;;;;;;;6.32;3.53;;;18.60;99.90;;;;;;6299260;28;20040;-79
2023/08/10 06:20:09;;;;;;;3.40;2.65;;;19.50;99.90;;;;;;6318571;28;20061;-79
2023/08/10 06:23:12;;;;;;;3.72;2.55;;;20.40;99.90;;;;;;6311677;28;20048;-80
2023/08/10 06:26:14;;;;;;;4.05;1.88;;;21.40;99.90;;;;;;6321027;28;20048;-82
2023/08/10 06:29:17;;;;;;;4.40;2.63;;;22.50;99.90;;;;;;6325409;28;20148;-80
2023/08/10 06:32:19;;;;;;;5.82;1.80;;;23.40;99.90;;;;;;6311248;28;20055;-80
2023/08/10 06:35:21;;;;;;;6.75;2.35;;;24.00;99.90;;;;;;6299661;28;20047;-80
2023/08/10 06:38:25;;;;;;;4.00;2.97;;;24.10;99.90;;;;;;6300757;28;20183;-79
2023/08/10 06:41:27;;;;;;;2.25;2.05;;;23.80;99.90;;;;;;6299700;28;20036;-82
2023/08/10 06:44:30;;;;;;;3.15;2.83;;;23.50;99.90;;;;;;6300839;28;20050;-81
2023/08/10 06:47:32;;;;;;;2.80;2.58;;;23.40;99.90;;;;;;6299789;28;20041;-82
2023/08/10 06:50:34;;;;;;;2.50;2.15;;;23.20;99.90;;;;;;6312313;28;20375;-83
2023/08/10 06:53:35;;;;;;;3.42;2.58;;;23.20;99.90;;;;;;6311416;28;20050;-79
2023/08/10 06:56:37;;;;;;;2.50;2.30;;;23.30;99.90;;;;;;6316529;28;20753;-78
2023/08/10 06:59:40;;;;;;;4.40;2.83;;;23.70;99.90;;;;;;6327840;28;20040;-81
2023/08/10 07:02:42;;;;;;;4.57;2.25;;;24.30;99.90;;;;;;6310933;28;20055;-79
2023/08/10 07:05:44;;;;;;;5.65;2.20;;;24.90;99.90;;;;;;6303713;28;20043;-80
2023/08/10 07:08:47;;;;;;;5.22;2.50;;;25.10;99.90;;;;;;6303400;28;20515;-83
2023/08/10 07:11:49;;;;;;;4.00;2.03;;;25.60;99.90;;;;;;6317508;28;20463;-81
2023/08/10 07:14:52;;;;;;;2.50;1.63;;;25.70;99.90;;;;;;6327324;28;20475;-81
2023/08/10 07:17:54;;;;;;;5.30;1.98;;;25.30;99.90;;;;;;6328319;28;20079;-81
2023/08/10 07:20:56;;;;;;;2.50;2.30;;;24.80;99.90;;;;;;6315424;28;20048;-79
2023/08/10 07:23:58;;;;;;;2.40;2.20;;;24.30;99.90;;;;;;6330626;28;20101;-79
2023/08/10 07:27:00;;;;;;;3.90;2.63;;;24.00;99.90;;;;;;6317352;28;20048;-80
2023/08/10 07:30:04;;;;;;;6.10;2.75;;;23.50;99.90;;;;;;6307041;28;20055;-80
2023/08/10 07:33:06;;;;;;;2.90;2.38;;;23.10;99.90;;;;;;6326986;28;20422;-81
2023/08/10 07:36:08;;;;;;;3.08;2.63;;;22.90;99.90;;;;;;6329494;28;20051;-80
2023/08/10 07:39:09;;;;;;;4.68;2.55;;;22.80;99.90;;;;;;6328302;28;20048;-80
2023/08/10 07:42:11;;;;;;;3.70;2.63;;;22.60;99.90;;;;;;6316632;28;20056;-80
2023/08/10 07:45:14;;;;;;;4.85;2.33;;;22.50;99.90;;;;;;6303180;28;20051;-81
2023/08/10 07:48:16;;;;;;;3.75;2.85;;;22.50;99.90;;;;;;6301241;28;20503;-79
2023/08/10 07:51:17;;;;;;;4.60;2.80;;;22.40;99.90;;;;;;6303932;28;20040;-78
2023/08/10 07:54:19;;;;;;;3.90;3.10;;;22.50;99.90;;;;;;6308933;28;20059;-79
2023/08/10 07:57:21;;;;;;;5.53;3.38;;;22.60;99.90;;;;;;6321836;28;20040;-79
2023/08/10 08:00:24;;;;;;;3.63;3.00;;;22.70;99.90;;;;;;6327002;28;20071;-79
2023/08/10 08:03:26;;;;;;;3.78;3.47;;;22.80;99.90;;;;;;6332151;28;20119;-80
2023/08/10 08:06:27;;;;;;;4.55;3.08;;;22.90;99.90;;;;;;6332873;28;20056;-82
2023/08/10 08:09:29;;;;;;;6.18;2.97;;;22.90;99.90;;;;;;6331802;28;20036;-79
2023/08/10 08:12:32;;;;;;;2.95;2.70;;;23.00;99.90;;;;;;6324973;28;20043;-80
2023/08/10 08:15:36;;;;;;;3.40;3.00;;;23.10;99.90;;;;;;6335090;28;20040;-78
2023/08/10 08:18:43;;;;;;;6.72;2.60;;;23.30;99.90;;;;;;6331604;28;20052;-80
2023/08/10 08:21:46;;;;;;;7.22;2.83;;;23.40;99.90;;;;;;6312671;28;20028;-79
2023/08/10 08:24:51;;;;;;;5.28;3.10;;;23.50;99.90;;;;;;6310777;28;20086;-80
2023/08/10 08:27:52;;;;;;;6.22;3.28;;;23.50;99.90;;;;;;6311386;28;20664;-79
2023/08/10 08:30:55;;;;;;;3.70;3.28;;;23.70;99.90;;;;;;6316920;28;20463;-79
2023/08/10 08:33:57;;;;;;;3.60;2.58;;;23.80;99.90;;;;;;6316985;28;20059;-80
2023/08/10 08:36:59;;;;;;;7.28;3.38;;;24.00;99.90;;;;;;6336826;28;20070;-78
2023/08/10 08:40:00;;;;;;;7.68;3.35;;;24.20;99.90;;;;;;6337847;28;20040;-79
2023/08/10 08:43:04;;;;;;;3.15;2.85;;;24.30;99.90;;;;;;6333396;28;20044;-79
2023/08/10 08:46:07;;;;;;;6.00;2.45;;;24.50;99.90;;;;;;6333746;28;20052;-79
2023/08/10 08:49:09;;;;;;;5.70;4.80;;;24.50;99.90;;;;;;6330146;28;20098;-83
2023/08/10 08:52:11;;;;;;;5.20;2.35;;;24.60;99.90;;;;;;6323310;28;20044;-81
2023/08/10 08:55:13;;;;;;;8.23;3.45;;;24.60;99.90;;;;;;6327084;28;21015;-80
2023/08/10 08:58:16;;;;;;;4.00;3.30;;;24.80;99.90;;;;;;6333490;28;20464;-80
2023/08/10 09:01:20;;;;;;;6.55;3.33;;;24.90;99.90;;;;;;6331990;28;20063;-79
2023/08/10 09:04:21;;;;;;;4.07;2.50;;;24.90;99.90;;;;;;6311297;28;20048;-79
2023/08/10 09:07:23;;;;;;;3.72;3.00;;;24.90;99.90;;;;;;6312598;28;20054;-81
2023/08/10 09:10:25;;;;;;;4.72;3.03;;;24.90;99.90;;;;;;6310844;28;20052;-82
2023/08/10 09:13:26;;;;;;;3.30;2.85;;;25.00;99.90;;;;;;6326312;28;20056;-81
2023/08/10 09:16:29;;;;;;;4.45;2.80;;;25.00;99.90;;;;;;6335649;28;20145;-81
2023/08/10 09:19:31;;;;;;;8.00;2.85;;;24.90;99.90;;;;;;6317066;28;20056;-79
2023/08/10 09:22:34;;;;;;;3.70;3.35;;;24.90;99.90;;;;;;6331664;28;20051;-81
2023/08/10 09:25:38;;;;;;;3.65;3.35;;;25.10;99.90;;;;;;6332094;28;20134;-79
2023/08/10 09:28:40;;;;;;;6.05;3.45;;;25.30;99.90;;;;;;6331566;28;20518;-79
2023/08/10 09:31:43;;;;;;;4.68;2.85;;;25.50;99.90;;;;;;6333023;28;20051;-79
2023/08/10 09:34:46;;;;;;;3.35;2.67;;;25.70;99.90;;;;;;6333772;28;20052;-81
2023/08/10 09:37:48;;;;;;;4.28;2.80;;;25.80;99.90;;;;;;6333552;28;20351;-79
2023/08/10 09:40:50;;;;;;;3.38;2.70;;;25.80;99.90;;;;;;6332296;28;20050;-80
2023/08/10 09:43:52;;;;;;;3.28;2.97;;;26.00;99.90;;;;;;6334344;28;20048;-81
2023/08/10 09:46:58;;;;;;;5.40;2.10;;;26.20;99.90;;;;;;6334241;28;20058;-79
2023/08/10 09:50:05;;;;;;;8.88;2.97;;;26.40;99.90;;;;;;6331420;28;20128;-80
2023/08/10 09:53:07;;;;;;;3.60;2.22;;;26.50;99.90;;;;;;6331498;28;20147;-80
2023/08/10 09:56:09;;;;;;;2.65;2.45;;;26.70;99.90;;;;;;6325116;28;20043;-80
2023/08/10 09:59:11;;;;;;;3.65;2.00;;;26.80;99.90;;;;;;6308057;28;20158;-80
2023/08/10 10:02:16;;;;;;;2.97;2.10;;;27.00;99.90;;;;;;6325527;28;20039;-80
2023/08/10 10:05:19;;;;;;;6.28;2.60;;;26.90;99.50;;;;;;6332290;28;20044;-80
2023/08/10 10:08:21;;;;;;;3.67;2.03;;;27.00;98.90;;;;;;6332068;28;20052;-80
2023/08/10 10:11:27;;;;;;;3.15;2.28;;;27.20;98.00;;;;;;6331248;28;20042;-80
2023/08/10 10:14:30;;;;;;;3.28;2.10;;;27.40;97.10;;;;;;6332296;28;20364;-80
2023/08/10 10:17:33;;;;;;;7.25;2.25;;;27.60;95.70;;;;;;6331828;28;20055;-80
2023/08/10 10:20:36;;;;;;;5.70;2.97;;;27.80;94.30;;;;;;6333188;28;20055;-80
2023/08/10 10:23:41;;;;;;;3.92;2.63;;;28.00;93.50;;;;;;6332724;28;20410;-80
2023/08/10 11:14:54;;;;;;;3.28;2.55;;;30.10;78.50;;;;;;6265081;28;20082;-79
2023/08/10 11:18:08;;;;;;;2.20;2.00;;;30.40;77.50;;;;;;6330917;28;20110;-78
2023/08/10 11:21:12;;;;;;;2.22;2.03;;;30.60;76.10;;;;;;6341745;28;20074;-78
2023/08/10 11:24:14;;;;;;;3.78;2.08;;;30.80;74.70;;;;;;6324068;28;20052;-79
2023/08/10 11:27:18;;;;;;;4.90;2.80;;;30.90;73.90;;;;;;6326856;28;20121;-78
2023/08/10 11:30:29;;;;;;;5.20;1.92;;;31.20;72.90;;;;;;6326154;28;20051;-79
2023/08/10 11:33:34;;;;;;;2.10;1.90;;;31.30;71.00;;;;;;6313054;28;20533;-79
2023/08/10 11:36:42;;;;;;;2.42;1.60;;;31.40;70.40;;;;;;6307789;28;20044;-77
2023/08/10 11:39:44;;;;;;;3.55;2.15;;;31.60;68.60;;;;;;6317264;28;20066;-80
2023/08/10 11:42:56;;;;;;;2.17;1.83;;;31.70;67.50;;;;;;6341479;28;20456;-78
2023/08/10 11:46:09;;;;;;;3.97;2.00;;;31.70;66.60;;;;;;6329532;28;20044;-79
2023/08/10 11:53:16;;;;;;;2.58;1.55;;;32.30;64.80;;;;;;6308725;28;20036;-78
2023/08/10 11:59:36;;;;;;;2.13;1.92;;;32.40;62.10;;;;;;6339452;28;20055;-78
2023/08/10 12:02:39;;;;;;;3.92;3.10;;;32.30;62.30;;;;;;6322558;28;20044;-77
2023/08/10 12:05:44;;;;;;;4.18;2.30;;;32.30;61.80;;;;;;6327505;28;20139;-79
2023/08/10 12:08:45;;;;;;;2.67;1.98;;;32.40;61.50;;;;;;6314075;28;20154;-79
2023/08/10 12:11:48;;;;;;;2.92;2.60;;;32.40;60.10;;;;;;6316072;28;20036;-78
2023/08/10 12:14:53;;;;;;;2.13;1.92;;;32.50;59.20;;;;;;6321238;28;20056;-78
2023/08/10 12:17:56;;;;;;;2.20;2.00;;;32.70;58.60;;;;;;6319199;28;20068;-80
2023/08/10 12:20:58;;;;;;;2.35;1.85;;;32.90;58.50;;;;;;6337380;28;20058;-78
2023/08/10 12:24:00;;;;;;;3.50;2.08;;;33.20;57.70;;;;;;6335074;28;20051;-78
2023/08/10 12:27:05;;;;;;;2.22;1.92;;;33.40;56.00;;;;;;6311791;28;20048;-78
2023/08/10 12:37:25;;;;;;;4.32;1.92;;;33.70;55.10;;;;;;6313196;28;20133;-77
2023/08/10 12:40:26;;;;;;;3.58;2.30;;;33.80;54.90;;;;;;6311651;28;20048;-78
2023/08/10 12:43:28;;;;;;;3.83;1.58;;;33.80;54.00;;;;;;6311446;28;20123;-78
2023/08/10 12:46:30;;;;;;;2.05;1.83;;;33.80;53.40;;;;;;6316398;28;20074;-78
2023/08/10 12:49:33;;;;;;;4.25;2.15;;;33.90;53.50;;;;;;6318739;28;20040;-79
2023/08/10 12:52:35;;;;;;;3.35;2.20;;;34.00;52.50;;;;;;6336108;28;20044;-78
2023/08/10 12:55:37;;;;;;;2.35;2.05;;;34.20;52.60;;;;;;6324844;28;20415;-77
2023/08/10 12:58:39;;;;;;;3.63;2.50;;;34.40;51.90;;;;;;6311661;28;20111;-78
2023/08/10 13:01:40;;;;;;;2.55;2.05;;;34.40;51.10;;;;;;6310858;28;20058;-77
2023/08/10 13:04:44;;;;;;;2.83;1.98;;;34.30;50.10;;;;;;6310300;28;20045;-78
2023/08/10 13:07:46;;;;;;;2.88;1.77;;;34.30;50.10;;;;;;6311815;28;20051;-78
2023/08/10 13:10:48;;;;;;;3.50;2.05;;;34.30;49.50;;;;;;6313701;28;20052;-78
2023/08/10 13:13:50;;;;;;;2.78;2.10;;;34.30;49.10;;;;;;6313311;28;20053;-78
2023/08/10 13:16:52;;;;;;;2.40;1.80;;;34.30;48.90;;;;;;6324398;28;20050;-78
2023/08/10 13:19:59;;;;;;;6.57;3.20;;;34.30;48.10;;;;;;6326693;28;20098;-78
2023/08/10 13:23:01;;;;;;;2.88;2.15;;;34.30;48.00;;;;;;6336852;28;20503;-77
2023/08/10 13:26:03;;;;;;;4.95;2.45;;;34.30;48.00;;;;;;6338736;28;20063;-78
2023/08/10 13:29:05;;;;;;;10.25;2.38;;;34.50;47.30;;;;;;6339263;28;20044;-78
2023/08/10 13:32:08;;;;;;;4.97;2.03;;;34.40;46.70;;;;;;6337606;28;20040;-78
2023/08/10 13:35:12;;;;;;;2.92;1.85;;;34.50;46.00;;;;;;6338535;28;20048;-78
2023/08/10 13:38:13;;;;;;;2.78;1.83;;;34.50;45.70;;;;;;6339835;28;20052;-78
2023/08/10 13:41:15;;;;;;;3.13;2.13;;;34.60;45.90;;;;;;6321375;28;20048;-78
2023/08/10 13:44:18;;;;;;;2.03;1.85;;;34.80;45.60;;;;;;6311329;28;20044;-78
2023/08/10 13:47:22;;;;;;;3.83;2.15;;;34.90;45.40;;;;;;6319596;28;20041;-78
2023/08/10 13:50:25;;;;;;;5.50;2.00;;;34.80;44.90;;;;;;6330837;28;20054;-78
2023/08/10 13:53:26;;;;;;;2.50;2.08;;;35.00;44.60;;;;;;6339992;28;20536;-78
2023/08/10 13:56:28;;;;;;;1.80;1.38;;;35.10;44.30;;;;;;6324226;28;20050;-78
2023/08/10 13:59:30;;;;;;;1.70;1.60;;;34.90;43.60;;;;;;6317769;28;20043;-78
2023/08/10 14:02:32;;;;;;;2.50;2.30;;;34.90;44.10;;;;;;6336816;28;20050;-78
2023/08/10 14:05:35;;;;;;;4.55;1.60;;;34.90;44.40;;;;;;6334449;28;20646;-77
2023/08/10 14:08:37;;;;;;;2.38;1.83;;;34.90;43.50;;;;;;6327471;28;20478;-79
2023/08/10 14:11:39;;;;;;;7.03;2.05;;;34.70;43.20;;;;;;6308203;28;20044;-78
2023/08/10 14:14:40;;;;;;;3.70;1.52;;;34.60;43.70;;;;;;6300727;28;20429;-79
2023/08/10 14:17:47;;;;;;;2.15;1.80;;;34.70;43.60;;;;;;6313530;28;20072;-78
2023/08/10 14:21:02;;;;;;;2.75;2.15;;;34.80;43.50;;;;;;6320849;28;20067;-78
2023/08/10 14:24:16;;;;;;;4.47;2.42;;;35.10;42.60;;;;;;6307965;28;20064;-78
2023/08/10 14:27:27;;;;;;;4.22;2.15;;;35.30;42.60;;;;;;6309436;28;20059;-78
2023/08/10 14:30:29;;;;;;;4.93;2.10;;;35.40;41.90;;;;;;6310957;28;20044;-78
2023/08/10 14:33:31;;;;;;;3.90;2.35;;;35.40;41.40;;;;;;6310492;28;20056;-77
2023/08/10 14:36:35;;;;;;;2.92;1.67;;;35.00;40.90;;;;;;6307143;28;20052;-77
2023/08/10 14:39:36;;;;;;;2.28;1.83;;;34.80;41.00;;;;;;6306235;28;20045;-77
2023/08/10 14:42:38;;;;;;;2.78;1.95;;;34.90;40.90;;;;;;6307924;28;20055;-77
2023/08/10 14:45:40;;;;;;;2.50;1.92;;;34.70;40.90;;;;;;6308311;28;20054;-80
2023/08/10 14:48:42;;;;;;;3.05;2.15;;;34.70;41.30;;;;;;6310506;28;20044;-78
2023/08/10 14:51:45;;;;;;;4.15;2.05;;;35.10;41.00;;;;;;6307227;28;20161;-77
2023/08/10 14:54:47;;;;;;;2.60;2.22;;;35.30;40.10;;;;;;6318850;28;20048;-78
2023/08/10 14:57:49;;;;;;;9.30;2.00;;;35.00;39.70;;;;;;6329602;28;20055;-76
2023/08/10 15:00:51;;;;;;;1.63;1.45;;;34.60;39.70;;;;;;6324329;28;20048;-78
2023/08/10 15:03:56;;;;;;;2.15;1.90;;;34.10;40.50;;;;;;6317162;28;20071;-78
2023/08/10 15:06:59;;;;;;;2.03;1.50;;;34.10;41.50;;;;;;6322901;28;20065;-78
2023/08/10 15:10:01;;;;;;;3.13;1.60;;;34.10;41.30;;;;;;6323058;28;20122;-78
2023/08/10 15:13:03;;;;;;;2.60;1.50;;;34.30;40.50;;;;;;6327848;28;20123;-79
2023/08/10 15:16:05;;;;;;;2.40;1.77;;;34.40;39.60;;;;;;6328906;28;20142;-78
2023/08/10 15:19:07;;;;;;;4.95;2.25;;;34.50;39.50;;;;;;6314196;28;20040;-78
2023/08/10 15:22:10;;;;;;;3.38;3.08;;;34.80;39.40;;;;;;6329818;28;20041;-78
2023/08/10 15:25:11;;;;;;;4.07;1.52;;;35.10;38.70;;;;;;6316490;28;20412;-78
2023/08/10 15:28:13;;;;;;;1.88;1.70;;;35.00;38.30;;;;;;6299702;28;20091;-78
2023/08/10 15:31:15;;;;;;;1.85;1.63;;;35.10;38.30;;;;;;6327858;28;20135;-79
2023/08/10 15:34:24;;;;;;;2.10;1.70;;;35.00;37.60;;;;;;6320020;28;20051;-78
2023/08/10 15:37:32;;;;;;;2.45;2.25;;;34.80;36.90;;;;;;6309617;28;20052;-77
2023/08/10 15:40:38;;;;;;;2.47;1.70;;;34.50;36.70;;;;;;6318104;28;20108;-77
2023/08/10 15:43:40;;;;;;;2.13;1.93;;;33.80;36.80;;;;;;6326116;28;20059;-77
2023/08/10 15:46:42;;;;;;;3.10;2.15;;;33.60;37.90;;;;;;6317650;28;20044;-78
2023/08/10 15:49:43;;;;;;;2.85;1.85;;;33.80;38.50;;;;;;6314577;28;20112;-78
2023/08/10 15:52:46;;;;;;;3.22;1.80;;;34.10;38.10;;;;;;6327505;28;20119;-77
2023/08/10 15:55:59;;;;;;;6.13;2.50;;;34.30;38.30;;;;;;6309396;28;20068;-79
2023/08/10 15:59:21;;;;;;;2.03;1.35;;;34.40;38.50;;;;;;6326793;28;20052;-77
2023/08/10 16:02:23;;;;;;;2.15;1.60;;;34.60;37.80;;;;;;6329760;28;20047;-77
2023/08/10 16:05:25;;;;;;;1.90;1.35;;;34.40;37.50;;;;;;6320004;28;20044;-78
2023/08/10 16:08:28;;;;;;;2.58;2.38;;;34.30;38.40;;;;;;6328632;28;20040;-78
2023/08/10 16:11:30;;;;;;;5.45;1.80;;;34.20;39.20;;;;;;6330057;28;20051;-77
2023/08/10 16:14:32;;;;;;;2.30;1.48;;;34.20;39.70;;;;;;6330256;28;20404;-77
2023/08/10 16:17:34;;;;;;;3.13;1.63;;;34.00;39.70;;;;;;6317219;28;20131;-78
2023/08/10 16:20:36;;;;;;;1.80;1.70;;;33.40;40.00;;;;;;6329460;28;20070;-77
2023/08/10 16:23:39;;;;;;;2.63;1.85;;;32.70;40.80;;;;;;6334323;28;20052;-78
2023/08/10 16:26:41;;;;;;;3.13;2.22;;;32.10;40.70;;;;;;6307499;28;20055;-79
2023/08/10 16:29:43;;;;;;;3.00;2.38;;;31.40;40.50;;;;;;6300587;28;20044;-78
2023/08/10 16:32:45;;;;;;;3.60;2.30;;;30.80;40.90;;;;;;6301593;28;20051;-77
2023/08/10 16:35:46;;;;;;;1.73;1.60;;;30.50;41.40;;;;;;6300784;28;20044;-77
2023/08/10 16:38:49;;;;;;;2.63;2.17;;;30.10;42.00;;;;;;6303195;28;20052;-78
2023/08/10 16:41:51;;;;;;;2.00;1.40;;;29.80;42.50;;;;;;6301876;28;20044;-82
2023/08/10 16:44:53;;;;;;;2.63;1.88;;;29.50;42.80;;;;;;6302806;28;20055;-78
2023/08/10 16:47:54;;;;;;;2.85;2.15;;;29.10;42.70;;;;;;6307903;28;20064;-78
2023/08/10 16:50:56;;;;;;;4.50;1.85;;;28.80;42.30;;;;;;6324552;28;20056;-79
2023/08/10 16:53:59;;;;;;;4.60;2.33;;;28.50;42.70;;;;;;6327301;28;20135;-80